createdAt,value
2023-04-20T00:02:20.839Z,61.38
2023-04-20T00:04:46.909Z,60.52
2023-04-20T00:07:12.714Z,61.28
2023-04-20T00:09:38.526Z,60.69
2023-04-20T00:12:04.718Z,63.44
2023-04-20T00:14:30.570Z,64.32
2023-04-20T00:16:56.437Z,68.14
2023-04-20T00:19:22.529Z,67.34
2023-04-20T00:21:48.563Z,68.26
2023-04-20T00:24:14.421Z,70.30
2023-04-20T00:26:40.352Z,72.84
2023-04-20T00:29:06.144Z,72.49
2023-04-20T00:31:32.186Z,73.77
2023-04-20T00:33:58.001Z,76.77
2023-04-20T00:36:23.754Z,74.31
2023-04-20T00:38:49.598Z,74.55
2023-04-20T00:41:15.671Z,76.84
2023-04-20T00:43:52.211Z,76.68
2023-04-20T00:46:19.271Z,77.32
2023-04-20T00:48:45.695Z,77.08
2023-04-20T00:51:12.362Z,76.45
2023-04-20T00:53:38.452Z,76.98
2023-04-20T00:56:05.737Z,76.91
2023-04-20T00:58:31.584Z,77.82
2023-04-20T01:00:57.363Z,78.77
2023-04-20T01:03:23.360Z,78.64
2023-04-20T01:05:49.619Z,77.68
2023-04-20T01:08:15.443Z,77.93
2023-04-20T01:10:41.313Z,80.06
2023-04-20T01:13:07.108Z,80.83
2023-04-20T01:15:34.518Z,80.46
2023-04-20T01:18:00.364Z,79.26
2023-04-20T01:20:26.166Z,79.18
2023-04-20T01:22:54.968Z,79.03
2023-04-20T01:25:21.326Z,79.17
2023-04-20T01:27:47.888Z,80.42
2023-04-20T01:30:14.473Z,80.97
2023-04-20T01:32:40.645Z,80.59
2023-04-20T01:35:08.030Z,81.43
2023-04-20T01:37:34.085Z,81.35
2023-04-20T01:40:00.264Z,80.88
2023-04-20T01:42:26.281Z,81.32
2023-04-20T01:44:52.112Z,80.06
2023-04-20T01:47:18.384Z,81.80
2023-04-20T01:49:44.474Z,81.31
2023-04-20T01:52:10.220Z,81.32
2023-04-20T01:54:36.767Z,80.98
2023-04-20T01:57:03.117Z,82.28
2023-04-20T01:59:29.092Z,81.33
2023-04-20T02:01:55.047Z,81.43
2023-04-20T02:04:20.985Z,80.97
2023-04-20T02:06:46.960Z,80.92
2023-04-20T02:09:12.823Z,81.22
2023-04-20T02:11:41.535Z,81.84
2023-04-20T02:14:07.349Z,80.53
2023-04-20T02:16:33.160Z,81.24
2023-04-20T02:18:59.032Z,80.66
2023-04-20T02:21:25.030Z,81.29
2023-04-20T02:23:50.785Z,80.85
2023-04-20T02:26:16.541Z,81.29
2023-04-20T02:28:42.393Z,80.66
2023-04-20T02:31:08.574Z,80.43
2023-04-20T02:33:34.408Z,81.63
2023-04-20T02:36:00.251Z,81.83
2023-04-20T02:38:26.437Z,83.13
2023-04-20T02:40:52.575Z,82.44
2023-04-20T02:43:18.422Z,81.89
2023-04-20T02:45:44.170Z,80.99
2023-04-20T02:48:10.030Z,81.04
2023-04-20T02:50:37.260Z,81.21
2023-04-20T02:53:03.572Z,81.08
2023-04-20T02:55:29.457Z,85.32
2023-04-20T02:57:55.263Z,87.20
2023-04-20T03:00:21.136Z,89.09
2023-04-20T03:02:47.309Z,92.12
2023-04-20T03:05:13.338Z,92.98
2023-04-20T03:07:39.094Z,94.16
2023-04-20T03:10:05.634Z,94.15
2023-04-20T03:12:31.399Z,96.35
2023-04-20T03:14:57.357Z,98.34
2023-04-20T03:17:23.277Z,99.84
2023-04-20T03:19:49.742Z,100.00
2023-04-20T03:22:18.481Z,100.00
2023-04-20T03:24:44.720Z,100.00
2023-04-20T03:27:10.530Z,100.00
2023-04-20T03:29:36.277Z,100.00
2023-04-20T03:32:02.874Z,100.00
2023-04-20T03:34:28.722Z,100.00
2023-04-20T03:36:54.491Z,100.00
2023-04-20T03:39:20.417Z,100.00
2023-04-20T03:41:46.412Z,100.00
2023-04-20T03:44:13.420Z,100.00
2023-04-20T03:46:39.193Z,100.00
2023-04-20T03:49:05.083Z,100.00
2023-04-20T03:51:31.633Z,100.00
2023-04-20T03:53:57.390Z,100.00
2023-04-20T03:56:23.313Z,100.00
2023-04-20T03:58:49.207Z,100.00
2023-04-20T04:01:15.282Z,100.00
2023-04-20T04:03:41.412Z,100.00
2023-04-20T04:06:08.446Z,100.00
2023-04-20T04:08:34.198Z,100.00
2023-04-20T04:10:59.991Z,100.00
2023-04-20T04:13:26.123Z,100.00
2023-04-20T04:15:52.101Z,100.00
2023-04-20T04:18:17.967Z,100.00
2023-04-20T04:20:43.867Z,100.00
2023-04-20T04:23:09.724Z,100.00
2023-04-20T04:25:39.692Z,100.00
2023-04-20T04:28:06.566Z,100.00
2023-04-20T04:30:32.686Z,100.00
2023-04-20T04:32:59.041Z,100.00
2023-04-20T04:35:25.927Z,100.00
2023-04-20T04:37:54.653Z,100.00
2023-04-20T04:40:20.581Z,100.00
2023-04-20T04:42:46.933Z,100.00
2023-04-20T04:45:12.867Z,100.00
2023-04-20T04:47:40.509Z,100.00
2023-04-20T04:50:08.558Z,100.00
2023-04-20T04:52:34.634Z,100.00
2023-04-20T04:55:00.538Z,100.00
2023-04-20T04:57:26.600Z,100.00
2023-04-20T04:59:53.074Z,100.00
2023-04-20T05:02:19.172Z,100.00
2023-04-20T05:04:46.115Z,100.00
2023-04-20T05:07:13.407Z,100.00
2023-04-20T05:09:39.514Z,100.00
2023-04-20T05:12:06.110Z,100.00
2023-04-20T05:14:32.774Z,100.00
2023-04-20T05:16:59.702Z,100.00
2023-04-20T05:19:25.549Z,100.00
2023-04-20T05:21:51.393Z,100.00
2023-04-20T05:24:18.799Z,100.00
2023-04-20T05:26:45.419Z,100.00
2023-04-20T05:29:11.621Z,100.00
2023-04-20T05:31:37.818Z,100.00
2023-04-20T05:34:03.676Z,100.00
2023-04-20T05:36:30.183Z,100.00
2023-04-20T05:38:56.265Z,100.00
2023-04-20T05:41:26.668Z,100.00
2023-04-20T05:43:53.732Z,100.00
2023-04-20T05:46:20.156Z,100.00
2023-04-20T05:48:46.083Z,100.00
2023-04-20T05:51:12.370Z,100.00
2023-04-20T05:53:38.354Z,100.00
2023-04-20T05:56:07.154Z,100.00
2023-04-20T05:58:34.695Z,100.00
2023-04-20T06:01:02.450Z,100.00
2023-04-20T06:03:28.600Z,100.00
2023-04-20T06:05:54.574Z,100.00
2023-04-20T06:08:20.443Z,100.00
2023-04-20T06:10:46.307Z,100.00
2023-04-20T06:13:12.131Z,100.00
2023-04-20T06:15:37.961Z,100.00
2023-04-20T06:18:04.284Z,100.00
2023-04-20T06:20:30.372Z,100.00
2023-04-20T06:22:56.249Z,100.00
2023-04-20T06:25:22.088Z,100.00
2023-04-20T06:27:48.490Z,100.00
2023-04-20T06:30:15.597Z,100.00
2023-04-20T06:32:41.624Z,100.00
2023-04-20T06:35:07.889Z,100.00
2023-04-20T06:37:37.191Z,100.00
2023-04-20T06:40:10.159Z,100.00
2023-04-20T06:42:36.651Z,100.00
2023-04-20T06:45:03.508Z,100.00
2023-04-20T06:47:32.968Z,100.00
2023-04-20T06:50:00.638Z,100.00
2023-04-20T06:52:27.347Z,100.00
2023-04-20T06:54:53.396Z,100.00
2023-04-20T06:57:19.401Z,100.00
2023-04-20T06:59:45.376Z,100.00
2023-04-20T07:02:11.338Z,100.00
2023-04-20T07:04:37.218Z,100.00
2023-04-20T07:07:03.167Z,100.00
2023-04-20T07:09:29.004Z,100.00
2023-04-20T07:11:55.602Z,100.00
2023-04-20T07:14:21.463Z,100.00
2023-04-20T07:16:47.327Z,100.00
2023-04-20T07:19:13.179Z,100.00
2023-04-20T07:21:38.956Z,100.00
2023-04-20T07:24:05.224Z,100.00
2023-04-20T07:26:31.005Z,100.00
2023-04-20T07:28:56.783Z,100.00
2023-04-20T07:31:22.656Z,100.00
2023-04-20T07:33:48.454Z,100.00
2023-04-20T07:36:14.355Z,100.00
2023-04-20T07:38:40.321Z,100.00
2023-04-20T07:41:09.449Z,100.00
2023-04-20T07:43:35.290Z,100.00
2023-04-20T07:46:01.106Z,100.00
2023-04-20T07:48:26.935Z,100.00
2023-04-20T07:50:52.877Z,100.00
2023-04-20T07:53:18.697Z,100.00
2023-04-20T07:55:44.471Z,100.00
2023-04-20T07:58:11.346Z,100.00
2023-04-20T08:00:37.251Z,100.00
2023-04-20T08:03:04.401Z,100.00
2023-04-20T08:05:30.908Z,100.00
2023-04-20T08:07:58.105Z,100.00
2023-04-20T08:10:24.068Z,100.00
2023-04-20T08:12:52.593Z,100.00
2023-04-20T08:15:18.680Z,100.00
2023-04-20T08:17:44.628Z,100.00
2023-04-20T08:20:10.696Z,100.00
2023-04-20T08:22:37.785Z,100.00
2023-04-20T08:25:04.054Z,100.00
2023-04-20T08:27:30.356Z,100.00
2023-04-20T08:29:56.398Z,100.00
2023-04-20T08:32:24.519Z,100.00
2023-04-20T08:34:50.433Z,100.00
2023-04-20T08:37:16.323Z,100.00
2023-04-20T08:39:42.078Z,100.00
2023-04-20T08:42:07.954Z,100.00
2023-04-20T08:44:33.760Z,100.00
2023-04-20T08:47:00.000Z,100.00
2023-04-20T08:49:31.118Z,100.00
2023-04-20T08:51:56.875Z,100.00
2023-04-20T08:54:24.757Z,100.00
2023-04-20T08:56:50.870Z,100.00
2023-04-20T08:59:16.709Z,100.00
2023-04-20T09:01:44.072Z,100.00
2023-04-20T09:04:26.344Z,100.00
2023-04-20T09:06:54.983Z,100.00
2023-04-20T09:09:24.845Z,100.00
2023-04-20T09:12:09.569Z,100.00
2023-04-20T09:14:46.758Z,100.00
2023-04-20T09:17:14.625Z,100.00
2023-04-20T09:19:43.464Z,100.00
2023-04-20T09:22:09.535Z,100.00
2023-04-20T09:24:37.316Z,100.00
2023-04-20T09:27:14.982Z,100.00
2023-04-20T09:29:41.011Z,100.00
2023-04-20T09:32:06.781Z,100.00
2023-04-20T09:34:45.715Z,100.00
2023-04-20T09:37:15.872Z,100.00
2023-04-20T09:39:43.624Z,100.00
2023-04-20T09:42:12.266Z,100.00
2023-04-20T09:44:38.856Z,100.00
2023-04-20T09:47:05.910Z,100.00
2023-04-20T09:49:31.938Z,100.00
2023-04-20T09:52:00.952Z,100.00
2023-04-20T09:54:28.140Z,100.00
2023-04-20T09:56:54.356Z,100.00
2023-04-20T09:59:20.891Z,100.00
2023-04-20T10:01:47.373Z,100.00
2023-04-20T10:04:13.762Z,98.31
2023-04-20T10:06:52.029Z,99.44
2023-04-20T10:09:25.515Z,94.12
2023-04-20T10:11:54.639Z,96.33
2023-04-20T10:14:25.395Z,94.41
2023-04-20T10:16:58.742Z,95.08
2023-04-20T10:19:35.090Z,94.36
2023-04-20T10:22:01.778Z,95.32
2023-04-20T10:24:29.530Z,98.46
2023-04-20T10:26:56.094Z,96.69
2023-04-20T10:29:26.576Z,94.24
2023-04-20T10:31:53.588Z,95.52
2023-04-20T10:34:32.522Z,91.89
2023-04-20T10:37:09.193Z,92.09
2023-04-20T10:39:37.003Z,90.44
2023-04-20T10:42:03.358Z,91.64
2023-04-20T10:44:30.269Z,91.75
2023-04-20T10:46:56.529Z,91.72
2023-04-20T10:49:26.727Z,93.30
2023-04-20T10:51:56.935Z,91.88
2023-04-20T10:54:22.828Z,93.55
2023-04-20T10:56:51.126Z,91.85
2023-04-20T10:59:19.486Z,90.29
2023-04-20T11:01:46.321Z,89.90
2023-04-20T11:04:12.720Z,85.14
2023-04-20T11:06:44.040Z,83.88
2023-04-20T11:09:25.873Z,82.89
2023-04-20T11:11:59.466Z,86.54
2023-04-20T11:14:25.456Z,86.06
2023-04-20T11:16:52.590Z,86.59
2023-04-20T11:19:32.154Z,88.09
2023-04-20T11:21:58.627Z,84.96
2023-04-20T11:24:29.983Z,81.15
2023-04-20T11:26:57.367Z,78.91
2023-04-20T11:29:41.287Z,78.30
2023-04-20T11:32:11.113Z,77.05
2023-04-20T11:34:38.874Z,74.90
2023-04-20T11:37:09.364Z,69.57
2023-04-20T11:39:36.290Z,71.80
2023-04-20T11:42:02.909Z,72.99
2023-04-20T11:44:28.843Z,75.48
2023-04-20T11:46:58.008Z,76.89
2023-04-20T11:49:26.285Z,76.30
2023-04-20T11:51:55.212Z,78.51
2023-04-20T11:54:24.710Z,79.59
2023-04-20T11:56:50.758Z,79.88
2023-04-20T11:59:19.095Z,73.84
2023-04-20T12:01:45.253Z,72.36
2023-04-20T12:04:11.246Z,72.57
2023-04-20T12:06:37.152Z,70.02
2023-04-20T12:09:05.446Z,71.03
2023-04-20T12:11:31.576Z,74.12
2023-04-20T12:13:57.784Z,73.70
2023-04-20T12:16:23.588Z,72.01
2023-04-20T12:18:49.520Z,68.34
2023-04-20T12:21:15.399Z,71.11
2023-04-20T12:23:42.045Z,73.13
2023-04-20T12:26:08.962Z,74.24
2023-04-20T12:28:34.765Z,72.81
2023-04-20T12:31:01.686Z,71.82
2023-04-20T12:33:27.561Z,72.67
2023-04-20T12:35:54.705Z,69.40
2023-04-20T12:38:20.500Z,69.33
2023-04-20T12:40:46.334Z,69.41
2023-04-20T12:43:12.083Z,72.27
2023-04-20T12:45:37.954Z,74.32
2023-04-20T12:48:04.182Z,76.17
2023-04-20T12:50:30.116Z,78.60
2023-04-20T12:52:57.613Z,80.69
2023-04-20T12:55:25.473Z,83.09
2023-04-20T12:57:51.443Z,86.37
2023-04-20T13:00:17.772Z,85.07
2023-04-20T13:02:43.771Z,81.15
2023-04-20T13:05:12.872Z,78.86
2023-04-20T13:07:38.666Z,78.47
2023-04-20T13:10:05.293Z,69.99
2023-04-20T13:12:31.117Z,63.92
2023-04-20T13:14:56.917Z,58.38
2023-04-20T13:17:22.813Z,60.64
2023-04-20T13:19:49.680Z,60.07
2023-04-20T13:22:18.680Z,57.97
2023-04-20T13:24:44.891Z,58.82
2023-04-20T13:27:11.019Z,60.97
2023-04-20T13:29:37.791Z,61.01
2023-04-20T13:32:04.049Z,61.62
2023-04-20T13:34:30.162Z,61.86
2023-04-20T13:36:57.542Z,60.68
2023-04-20T13:39:23.528Z,56.67
2023-04-20T13:41:49.374Z,58.22
2023-04-20T13:44:15.707Z,60.05
2023-04-20T13:46:43.409Z,56.60
2023-04-20T13:49:11.470Z,55.68
2023-04-20T13:51:39.871Z,54.50
2023-04-20T13:54:06.690Z,51.96
2023-04-20T13:56:35.327Z,53.76
2023-04-20T13:59:03.267Z,57.72
2023-04-20T14:01:30.339Z,55.59
2023-04-20T14:03:56.439Z,55.69
2023-04-20T14:06:22.381Z,56.45
2023-04-20T14:08:48.576Z,57.08
2023-04-20T14:11:14.604Z,58.34
2023-04-20T14:13:40.865Z,56.79
2023-04-20T14:16:11.800Z,58.28
2023-04-20T14:18:38.403Z,58.10
2023-04-20T14:21:04.497Z,57.00
2023-04-20T14:23:30.565Z,56.33
2023-04-20T14:25:57.239Z,57.26
2023-04-20T14:28:23.245Z,57.49
2023-04-20T14:30:50.678Z,55.99
2023-04-20T14:33:16.713Z,54.48
2023-04-20T14:35:42.853Z,54.57
2023-04-20T14:38:08.634Z,54.07
2023-04-20T14:40:34.609Z,52.49
2023-04-20T14:43:00.438Z,53.24
2023-04-20T14:45:26.224Z,51.30
2023-04-20T14:47:56.259Z,49.09
2023-04-20T14:50:31.085Z,49.61
2023-04-20T14:52:56.947Z,49.61
2023-04-20T14:55:24.866Z,48.29
2023-04-20T14:57:56.108Z,49.11
2023-04-20T15:00:27.426Z,49.45
2023-04-20T15:02:55.844Z,48.18
2023-04-20T15:05:24.382Z,47.46
2023-04-20T15:07:50.666Z,47.66
2023-04-20T15:10:20.423Z,48.02
2023-04-20T15:12:47.162Z,47.16
2023-04-20T15:15:13.588Z,47.00
2023-04-20T15:17:39.713Z,46.91
2023-04-20T15:20:06.918Z,46.74
2023-04-20T15:22:32.731Z,48.11
2023-04-20T15:24:58.559Z,49.30
2023-04-20T15:27:24.369Z,51.39
2023-04-20T15:29:50.382Z,50.52
2023-04-20T15:32:16.440Z,49.39
2023-04-20T15:34:42.340Z,48.43
2023-04-20T15:37:08.734Z,48.04
2023-04-20T15:39:34.620Z,47.16
2023-04-20T15:42:02.152Z,47.94
2023-04-20T15:44:28.806Z,48.72
2023-04-20T15:46:55.378Z,50.09
2023-04-20T15:49:21.300Z,50.19
2023-04-20T15:51:47.209Z,48.24
2023-04-20T15:54:13.498Z,49.45
2023-04-20T15:56:39.262Z,49.96
2023-04-20T15:59:05.111Z,50.35
2023-04-20T16:01:32.880Z,50.75
2023-04-20T16:03:59.306Z,51.73
2023-04-20T16:06:25.710Z,53.35
2023-04-20T16:08:53.269Z,54.65
2023-04-20T16:11:21.103Z,58.18
2023-04-20T16:13:46.935Z,60.66
2023-04-20T16:16:12.797Z,63.87
2023-04-20T16:18:38.756Z,65.42
2023-04-20T16:21:07.338Z,71.41
2023-04-20T16:23:33.178Z,78.13
2023-04-20T16:25:59.044Z,83.86
2023-04-20T16:28:25.672Z,87.72
2023-04-20T16:30:51.532Z,93.19
2023-04-20T16:33:17.885Z,94.25
2023-04-20T16:35:43.819Z,99.18
2023-04-20T16:38:10.782Z,99.24
2023-04-20T16:40:36.851Z,100.00
2023-04-20T16:43:03.214Z,100.00
2023-04-20T16:45:29.715Z,100.00
2023-04-20T16:47:57.357Z,100.00
2023-04-20T16:50:23.278Z,100.00
2023-04-20T16:52:49.383Z,100.00
2023-04-20T16:55:15.582Z,100.00
2023-04-20T16:57:41.619Z,100.00
2023-04-20T17:00:10.170Z,100.00
2023-04-20T17:02:36.724Z,100.00
2023-04-20T17:05:04.152Z,100.00
2023-04-20T17:07:30.106Z,100.00
2023-04-20T17:09:56.127Z,100.00
2023-04-20T17:12:22.149Z,100.00
2023-04-20T17:14:48.064Z,100.00
2023-04-20T17:17:14.016Z,100.00
2023-04-20T17:19:40.042Z,100.00
2023-04-20T17:22:06.688Z,100.00
2023-04-20T17:24:32.540Z,100.00
2023-04-20T17:26:58.639Z,100.00
2023-04-20T17:29:25.037Z,100.00
2023-04-20T17:31:51.139Z,100.00
2023-04-20T17:34:18.967Z,100.00
2023-04-20T17:36:46.086Z,100.00
2023-04-20T17:39:12.254Z,100.00
2023-04-20T17:41:38.404Z,100.00
2023-04-20T17:44:04.219Z,100.00
2023-04-20T17:46:31.264Z,100.00
2023-04-20T17:48:57.212Z,100.00
2023-04-20T17:51:23.076Z,100.00
2023-04-20T17:53:48.901Z,100.00
2023-04-20T17:56:14.769Z,100.00
2023-04-20T17:58:40.521Z,100.00
2023-04-20T18:01:07.371Z,100.00
2023-04-20T18:03:33.289Z,100.00
2023-04-20T18:05:59.224Z,100.00
2023-04-20T18:08:25.183Z,100.00
2023-04-20T18:10:51.037Z,100.00
2023-04-20T18:13:16.979Z,100.00
2023-04-20T18:15:43.131Z,100.00
2023-04-20T18:18:08.990Z,100.00
2023-04-20T18:20:34.894Z,100.00
2023-04-20T18:23:01.170Z,100.00
2023-04-20T18:25:27.046Z,100.00
2023-04-20T18:27:52.918Z,100.00
2023-04-20T18:30:18.706Z,100.00
2023-04-20T18:32:44.577Z,100.00
2023-04-20T18:35:10.549Z,100.00
2023-04-20T18:37:36.573Z,100.00
2023-04-20T18:40:05.393Z,100.00
2023-04-20T18:42:31.213Z,100.00
2023-04-20T18:44:57.164Z,100.00
2023-04-20T18:47:24.843Z,100.00
2023-04-20T18:49:50.774Z,100.00
2023-04-20T18:52:18.561Z,100.00
2023-04-20T18:54:45.649Z,100.00
2023-04-20T18:57:11.591Z,100.00
2023-04-20T18:59:37.435Z,100.00
2023-04-20T19:02:03.379Z,100.00
2023-04-20T19:04:29.443Z,100.00
2023-04-20T19:06:55.429Z,100.00
2023-04-20T19:09:21.297Z,100.00
2023-04-20T19:11:48.850Z,100.00
2023-04-20T19:14:14.818Z,100.00
2023-04-20T19:16:40.718Z,100.00
2023-04-20T19:19:07.073Z,100.00
2023-04-20T19:21:33.261Z,100.00
2023-04-20T19:23:59.190Z,100.00
2023-04-20T19:26:25.183Z,100.00
2023-04-20T19:28:51.180Z,100.00
2023-04-20T19:31:16.999Z,100.00
2023-04-20T19:33:42.813Z,100.00
2023-04-20T19:36:08.643Z,100.00
2023-04-20T19:38:36.684Z,100.00
2023-04-20T19:41:03.297Z,100.00
2023-04-20T19:43:31.174Z,100.00
2023-04-20T19:45:57.899Z,100.00
2023-04-20T19:48:24.309Z,100.00
2023-04-20T19:50:50.942Z,100.00
2023-04-20T19:53:18.471Z,100.00
2023-04-20T19:55:44.605Z,100.00
2023-04-20T19:58:10.674Z,100.00
2023-04-20T20:00:37.185Z,100.00
2023-04-20T20:03:07.060Z,100.00
2023-04-20T20:05:34.045Z,100.00
2023-04-20T20:08:00.049Z,100.00
2023-04-20T20:10:26.029Z,100.00
2023-04-20T20:12:51.905Z,100.00
2023-04-20T20:15:17.817Z,100.00
2023-04-20T20:17:45.890Z,100.00
2023-04-20T20:20:12.335Z,100.00
2023-04-20T20:22:38.181Z,100.00
2023-04-20T20:25:04.473Z,100.00
2023-04-20T20:27:30.420Z,100.00
2023-04-20T20:29:56.294Z,100.00
2023-04-20T20:32:22.190Z,100.00
2023-04-20T20:34:48.526Z,100.00
2023-04-20T20:37:15.747Z,100.00
2023-04-20T20:39:42.384Z,100.00
2023-04-20T20:42:09.595Z,100.00
2023-04-20T20:44:39.101Z,100.00
2023-04-20T20:47:05.970Z,100.00
2023-04-20T20:49:31.960Z,100.00
2023-04-20T20:51:57.871Z,100.00
2023-04-20T20:54:23.694Z,100.00
2023-04-20T20:56:49.670Z,100.00
2023-04-20T20:59:15.665Z,100.00
2023-04-20T21:01:41.640Z,100.00
2023-04-20T21:04:07.782Z,100.00
2023-04-20T21:06:33.762Z,100.00
2023-04-20T21:09:00.261Z,100.00
2023-04-20T21:11:26.083Z,100.00
2023-04-20T21:13:51.971Z,100.00
2023-04-20T21:16:17.768Z,100.00
2023-04-20T21:18:43.574Z,100.00
2023-04-20T21:21:12.782Z,100.00
2023-04-20T21:23:38.579Z,100.00
2023-04-20T21:26:06.249Z,100.00
2023-04-20T21:28:32.083Z,100.00
2023-04-20T21:30:57.904Z,100.00
2023-04-20T21:33:23.807Z,100.00
2023-04-20T21:35:49.610Z,100.00
2023-04-20T21:38:15.405Z,100.00
2023-04-20T21:40:41.223Z,100.00
2023-04-20T21:43:06.989Z,100.00
2023-04-20T21:45:32.794Z,100.00
2023-04-20T21:47:58.563Z,100.00
2023-04-20T21:50:26.321Z,100.00
2023-04-20T21:52:53.541Z,100.00
2023-04-20T21:55:19.914Z,100.00
2023-04-20T21:57:45.752Z,100.00
2023-04-20T22:00:11.905Z,100.00
2023-04-20T22:02:37.850Z,100.00
2023-04-20T22:05:04.633Z,100.00
2023-04-20T22:07:31.943Z,100.00
2023-04-20T22:10:00.026Z,100.00
2023-04-20T22:12:38.380Z,100.00
2023-04-20T22:15:10.281Z,100.00
2023-04-20T22:17:39.808Z,100.00
2023-04-20T22:20:08.650Z,100.00
2023-04-20T22:22:36.177Z,100.00
2023-04-20T22:25:03.696Z,100.00
2023-04-20T22:27:30.221Z,100.00
2023-04-20T22:29:56.217Z,100.00
2023-04-20T22:32:22.083Z,100.00
2023-04-20T22:34:47.998Z,100.00
2023-04-20T22:37:13.815Z,100.00
2023-04-20T22:39:39.567Z,100.00
2023-04-20T22:42:05.381Z,100.00
2023-04-20T22:44:31.156Z,100.00
2023-04-20T22:46:57.267Z,100.00
2023-04-20T22:49:29.565Z,100.00
2023-04-20T22:51:56.820Z,100.00
2023-04-20T22:54:25.661Z,100.00
2023-04-20T22:56:51.457Z,100.00
2023-04-20T22:59:17.361Z,100.00
2023-04-20T23:01:43.434Z,100.00
2023-04-20T23:04:09.435Z,100.00
2023-04-20T23:06:35.610Z,100.00
2023-04-20T23:09:03.432Z,100.00
2023-04-20T23:11:29.347Z,100.00
2023-04-20T23:13:55.260Z,100.00
2023-04-20T23:16:22.423Z,100.00
2023-04-20T23:18:48.384Z,100.00
2023-04-20T23:21:16.024Z,100.00
2023-04-20T23:23:41.875Z,100.00
2023-04-20T23:26:07.684Z,100.00
2023-04-20T23:28:33.514Z,100.00
2023-04-20T23:30:59.305Z,100.00
2023-04-20T23:33:25.053Z,100.00
2023-04-20T23:35:50.918Z,100.00
2023-04-20T23:38:17.523Z,100.00
2023-04-20T23:40:43.360Z,100.00
2023-04-20T23:43:09.163Z,100.00
2023-04-20T23:45:34.941Z,100.00
2023-04-20T23:48:00.847Z,100.00
2023-04-20T23:50:26.633Z,100.00
2023-04-20T23:52:52.467Z,100.00
2023-04-20T23:55:18.274Z,100.00
2023-04-20T23:57:46.056Z,100.00
